Terminal Aerodrome Forecast
Issued by NWS

Home | Current Version | Previous Version | Text Only | Print | Product List | Glossary On
Versions: 1 2 3 4 5 6 7 8 9 10 11 12 13 14 15 16 17 18 19 20 21 22
000
FTUS43 KFGF 232325
TAFDVL
TAF
KDVL 232325Z 2400/2424 22010KT P6SM FEW200
     FM240200 24013G21KT P6SM FEW200 WS020/27050KT
     FM240600 25012G24KT P6SM SCT250
     FM241000 25014KT P6SM BKN090
     FM241300 26020G29KT P6SM BKN030
     FM241400 28026G37KT P6SM BKN020
     FM241500 31023G35KT P6SM BKN060
     FM242200 30016G24KT P6SM FEW200=

USA.gov is the U.S. government's official web portal to all federal, state and local government web resources and services.